Coevorden, Netherlands
Current Conditions -  °F | °C
As of 11:25 AM on Monday 20 Oct 2014 (Local Time) from EHGG Reporting Station
Broken Clouds Broken Clouds  
Wind Chill: 59°   Ceiling: 2200
Heat Index: 59°   Visibility: 6mi
Dew Point: 52°   Wind: 15mph
Humidity: 77%   Direction: 270°W
Pressure: 29.91"   Gusts: NA
Location:  52.66°N, 6.74°E
Report Text: EHGG 200925Z AUTO 27013KT 230V300 9999 SCT019 BKN022 BKN02615/11 Q1013 NOSIG
Loading
Personal Weather Stations






























Interactive Weather Map
Tropical Storm Tracking
New forecast layout! Learn more

10-Day Weather Forecast

Advertisements
Track Severe Weather on mobile